Nearby METAR Reports

 

KSJC - San Jose, California, USA
Distance from station: NE 9mi, 14km
Updated: Sat, 26-Sep-2020 2:53am CDT
Clear
Clear
 Wind from SSW
Wind: SSW 3 mph , 6 km/h
Temperature: 63°F , 17°C
Dew Point: 55°F , 13°C
Humidity: 77%
Barometer: 30.04 inHg , 1017.3 hPa
Clouds: Clear
Visibility: 10 miles , 16 km
2020/09/26 07:53 KSJC 260753Z AUTO 21003KT 10SM CLR 17/13 A3004 RMK AO2 SLP170 T01720128 402610133
KNUQ - Moffett Nas/Mtn, California, USA
Distance from station: N 9mi, 14km
Updated: Sat, 26-Sep-2020 2:35am CDT

 Wind from calm
Wind: Calm
Temperature: 63°F , 17°C
Dew Point: 55°F , 13°C
Humidity: 77%
Barometer: 30.04 inHg , 1017.3 hPa
Visibility: 10 miles , 16 km
2020/09/26 07:35 KNUQ 260735Z AUTO 00000KT 10SM 17/13 A3004 RMK AO2
 
KPAO - Palo Alto, California, USA
Distance from station: NNW 14mi, 23km
Updated: Fri, 25-Sep-2020 8:47pm CDT
NOT Current
Clear
Clear
 Wind from NW
Wind: NW 12 mph , 19 km/h
Temperature: 72°F , 22°C
Dew Point: 52°F , 11°C
Humidity: 50%
Barometer: 30.00 inHg , 1015.9 hPa
Clouds: Clear
Visibility: 10 miles , 16 km
2020/09/26 01:47 KPAO 260147Z 31010KT 10SM SKC 22/11 A3000 RMK LAST
KRHV - San Jose/Reid, California, USA
Distance from station: ENE 12mi, 19km
Updated: Fri, 25-Sep-2020 11:50pm CDT
NOT Current
Clear
Clear
 Wind from calm
Wind: Calm
Temperature: 64°F , 18°C
Dew Point: 54°F , 12°C
Humidity: 68%
Barometer: 30.04 inHg , 1017.3 hPa
Clouds: Clear
Visibility: 10 miles , 16 km
2020/09/26 04:50 KRHV 260450Z 00000KT 10SM SKC 18/12 A3004 RMK LAST
 
KOAK - Oakland, California, USA
Distance from station: NNW 31mi, 50km
Updated: Sat, 26-Sep-2020 2:53am CDT
Clear
Clear
 Wind from S
Wind: S 7 mph , 11 km/h
Temperature: 64°F , 18°C
Dew Point: 57°F , 14°C
Humidity: 78%
Barometer: 30.03 inHg , 1016.9 hPa
Clouds: Clear
Visibility: 10 miles , 16 km
2020/09/26 07:53 KOAK 260753Z 19006KT 10SM CLR 18/14 A3003 RMK AO2 SLP169 T01830139 402390167
KSQL - San Carlos Airpo, California, USA
Distance from station: NW 21mi, 34km
Updated: Sat, 26-Sep-2020 2:35am CDT
Clear
Clear
 Wind from calm
Wind: Calm
Temperature: 63°F , 17°C
Dew Point: 54°F , 12°C
Humidity: 73%
Barometer: 30.05 inHg , 1017.6 hPa
Clouds: Clear
Visibility: 10 miles , 16 km
2020/09/26 07:35 KSQL 260735Z AUTO 00000KT 10SM CLR 17/12 A3005 RMK AO2
 
KSFO - San Francisco, California, USA
Distance from station: NW 30mi, 49km
Updated: Sat, 26-Sep-2020 1:56am CDT
Clear
Clear
 Wind from NW
Wind: NW 8 mph , 13 km/h
Temperature: 61°F , 16°C
Dew Point: 55°F , 13°C
Humidity: 83%
Barometer: 30.03 inHg , 1016.9 hPa
Clouds: Clear
Visibility: 10 miles , 16 km
2020/09/26 06:56 KSFO 260656Z 31007KT 10SM CLR 16/13 A3003 RMK AO2 SLP169 T01610133
KE16 - San Martin, California, USA
Distance from station: ESE 27mi, 43km
Updated: Sat, 26-Sep-2020 2:30am CDT

 Wind from N
Wind: N 3 mph , 6 km/h
Temperature: 57°F , 14°C
Dew Point: 50°F , 10°C
Humidity: 77%
Barometer: 30.06 inHg , 1017.9 hPa
Visibility: 10 miles , 16 km
2020/09/26 07:30 KE16 260730Z AUTO 35003KT 10SM 14/10 A3006 RMK AO2 PWINO PNO
 
KWVI - Watsonville, California, USA
Distance from station: SSE 27mi, 44km
Updated: Sat, 26-Sep-2020 2:53am CDT
Clear
Clear
 Wind from NNW
Wind: NNW 3 mph , 6 km/h
Temperature: 55°F , 13°C
Dew Point: 54°F , 12°C
Humidity: 94%
Barometer: 30.04 inHg , 1017.3 hPa
Clouds: Clear
Visibility: 10 miles , 16 km
2020/09/26 07:53 KWVI 260753Z AUTO 34003KT 10SM CLR 13/12 A3004 RMK AO2 SLP171 T01330117 402390117
KHAF - Half Moon Bay, California, USA
Distance from station: WNW 31mi, 50km
Updated: Sat, 26-Sep-2020 2:55am CDT
Mist, Clear
Mist, Clear
 Wind from calm
Wind: Calm
Temperature: 57°F , 14°C
Dew Point: 55°F , 13°C
Humidity: 94%
Barometer: 30.06 inHg , 1017.9 hPa
Summary: Mist
Clouds: Clear
Visibility: 5 miles , 8 km
2020/09/26 07:55 KHAF 260755Z AUTO 00000KT 5SM BR CLR 14/13 A3006 RMK AO2
 
KHWD - Hayward, California, USA
Distance from station: N 28mi, 44km
Updated: Sat, 26-Sep-2020 2:54am CDT
Clear
Clear
 Wind from NE
Wind: NE 6 mph , 9 km/h
Temperature: 63°F , 17°C
Dew Point: 54°F , 12°C
Humidity: 73%
Barometer: 30.03 inHg , 1016.9 hPa
Clouds: Clear
Visibility: 10 miles , 16 km
2020/09/26 07:54 KHWD 260754Z AUTO 05005KT 10SM CLR 17/12 A3003 RMK AO2 SLP177 T01720122
KLVK - Livermore, California, USA
Distance from station: NNE 31mi, 51km
Updated: Sat, 26-Sep-2020 2:53am CDT
Clear
Clear
 Wind from calm
Wind: Calm
Temperature: 59°F , 15°C
Dew Point: 54°F , 12°C
Humidity: 82%
Barometer: 30.03 inHg , 1016.9 hPa
Clouds: Clear
Visibility: 10 miles , 16 km
2020/09/26 07:53 KLVK 260753Z AUTO 00000KT 10SM CLR 15/12 A3003 RMK AO2 SLP166 T01500122 402830144